createdAt,value
2022-07-28T00:00:21.411Z,99.90
2022-07-28T00:02:52.817Z,99.90
2022-07-28T00:05:24.473Z,99.90
2022-07-28T00:07:55.708Z,99.90
2022-07-28T00:10:27.257Z,99.90
2022-07-28T00:12:58.736Z,99.90
2022-07-28T00:15:31.069Z,99.90
2022-07-28T00:18:02.686Z,99.90
2022-07-28T00:20:34.222Z,99.90
2022-07-28T00:23:05.508Z,99.90
2022-07-28T00:25:36.856Z,99.90
2022-07-28T00:28:08.181Z,99.90
2022-07-28T00:30:39.653Z,99.90
2022-07-28T00:33:11.570Z,99.90
2022-07-28T00:35:43.177Z,99.90
2022-07-28T00:38:20.026Z,99.90
2022-07-28T00:41:14.260Z,99.90
2022-07-28T00:43:50.468Z,99.90
2022-07-28T00:49:09.535Z,99.90
2022-07-28T00:51:43.107Z,99.90
2022-07-28T00:54:14.723Z,99.90
2022-07-28T00:56:46.402Z,99.90
2022-07-28T00:59:17.934Z,99.90
2022-07-28T01:01:50.739Z,99.90
2022-07-28T01:04:26.814Z,99.90
2022-07-28T01:07:13.394Z,99.90
2022-07-28T01:10:15.789Z,99.90
2022-07-28T01:13:08.841Z,99.90
2022-07-28T01:15:46.877Z,99.90
2022-07-28T01:18:25.137Z,99.90
2022-07-28T01:21:13.472Z,99.90
2022-07-28T01:24:22.070Z,99.90
2022-07-28T01:27:26.363Z,99.90
2022-07-28T01:30:03.608Z,99.90
2022-07-28T01:32:44.158Z,99.90
2022-07-28T01:35:28.314Z,99.90
2022-07-28T01:38:04.296Z,99.90
2022-07-28T01:40:38.637Z,99.90
2022-07-28T01:43:16.623Z,99.90
2022-07-28T01:45:49.419Z,99.90
2022-07-28T01:48:22.718Z,99.90
2022-07-28T01:50:56.530Z,99.90
2022-07-28T01:53:30.008Z,99.90
2022-07-28T01:56:01.867Z,99.90
2022-07-28T01:58:50.009Z,99.90
2022-07-28T02:01:23.314Z,99.90
2022-07-28T02:03:56.245Z,99.90
2022-07-28T02:06:28.413Z,99.90
2022-07-28T02:09:02.367Z,99.90
2022-07-28T02:11:44.637Z,99.90
2022-07-28T02:14:20.040Z,99.90
2022-07-28T02:17:00.884Z,99.90
2022-07-28T02:19:34.067Z,99.90
2022-07-28T02:22:07.261Z,99.90
2022-07-28T02:24:39.732Z,99.90
2022-07-28T02:27:24.348Z,99.90
2022-07-28T02:30:25.586Z,99.90
2022-07-28T02:33:01.443Z,99.90
2022-07-28T02:35:49.300Z,99.90
2022-07-28T02:38:31.741Z,99.90
2022-07-28T02:41:10.979Z,99.90
2022-07-28T02:43:49.411Z,99.90
2022-07-28T02:46:27.860Z,99.90
2022-07-28T02:49:14.574Z,99.90
2022-07-28T02:51:47.673Z,99.90
2022-07-28T02:54:21.878Z,99.90
2022-07-28T02:56:55.064Z,99.90
2022-07-28T02:59:27.529Z,99.90
2022-07-28T03:02:03.047Z,99.90
2022-07-28T03:04:53.947Z,99.90
2022-07-28T03:07:25.913Z,99.90
2022-07-28T03:09:58.205Z,99.90
2022-07-28T03:12:30.704Z,99.90
2022-07-28T03:15:04.425Z,99.90
2022-07-28T03:17:36.394Z,99.90
2022-07-28T03:20:09.497Z,99.90
2022-07-28T03:22:42.160Z,99.90
2022-07-28T03:25:31.929Z,99.90
2022-07-28T03:28:09.795Z,99.90
2022-07-28T03:31:04.089Z,99.60
2022-07-28T03:33:43.051Z,98.90
2022-07-28T03:36:20.535Z,98.70
2022-07-28T03:39:06.997Z,98.70
2022-07-28T03:41:46.128Z,98.40
2022-07-28T03:44:28.089Z,97.70
2022-07-28T03:47:00.762Z,98.60
2022-07-28T03:49:32.462Z,97.60
2022-07-28T03:52:07.387Z,97.20
2022-07-28T03:55:00.806Z,96.50
2022-07-28T03:58:04.906Z,96.70
2022-07-28T04:00:36.664Z,96.40
2022-07-28T04:03:35.168Z,95.60
2022-07-28T04:07:09.568Z,95.00
2022-07-28T04:09:41.178Z,96.60
2022-07-28T04:12:33.898Z,94.00
2022-07-28T04:15:47.374Z,95.60
2022-07-28T04:18:31.258Z,94.20
2022-07-28T04:21:44.739Z,95.10
2022-07-28T04:25:15.548Z,94.90
2022-07-28T04:27:47.766Z,95.80
2022-07-28T04:30:55.183Z,95.30
2022-07-28T04:34:05.194Z,93.10
2022-07-28T04:37:00.924Z,94.30
2022-07-28T04:39:32.700Z,94.20
2022-07-28T04:42:24.397Z,93.70
2022-07-28T04:45:01.485Z,92.50
2022-07-28T04:47:33.404Z,91.20
2022-07-28T04:50:05.466Z,91.50
2022-07-28T04:52:37.393Z,91.70
2022-07-28T04:55:29.359Z,91.80
2022-07-28T04:58:01.182Z,90.60
2022-07-28T05:00:40.178Z,90.70
2022-07-28T05:03:59.757Z,90.80
2022-07-28T05:06:34.267Z,88.90
2022-07-28T05:09:25.602Z,89.80
2022-07-28T05:11:57.050Z,90.80
2022-07-28T05:14:29.470Z,90.00
2022-07-28T05:17:20.665Z,90.70
2022-07-28T05:19:52.039Z,89.60
2022-07-28T05:22:47.309Z,90.90
2022-07-28T05:25:23.211Z,91.70
2022-07-28T05:27:57.669Z,91.30
2022-07-28T05:31:16.018Z,90.70
2022-07-28T05:33:47.174Z,91.70
2022-07-28T05:36:18.376Z,91.30
2022-07-28T05:39:09.723Z,88.30
2022-07-28T05:41:40.995Z,90.30
2022-07-28T05:44:37.661Z,88.00
2022-07-28T05:47:32.323Z,86.60
2022-07-28T05:50:26.666Z,85.40
2022-07-28T05:52:59.622Z,90.20
2022-07-28T05:55:31.146Z,87.00
2022-07-28T05:58:02.477Z,88.60
2022-07-28T06:00:36.672Z,88.40
2022-07-28T06:04:10.114Z,88.20
2022-07-28T06:07:06.745Z,89.30
2022-07-28T06:09:45.235Z,86.60
2022-07-28T06:12:22.708Z,88.00
2022-07-28T06:15:20.456Z,89.10
2022-07-28T06:17:56.763Z,86.30
2022-07-28T06:20:29.242Z,87.30
2022-07-28T06:23:25.227Z,87.40
2022-07-28T06:25:56.671Z,84.50
2022-07-28T06:28:27.945Z,84.70
2022-07-28T06:31:21.901Z,86.10
2022-07-28T06:33:53.282Z,84.80
2022-07-28T06:37:04.862Z,84.40
2022-07-28T06:40:24.633Z,83.60
2022-07-28T06:43:01.684Z,83.90
2022-07-28T06:46:05.573Z,82.60
2022-07-28T06:48:39.154Z,81.80
2022-07-28T06:51:30.762Z,82.30
2022-07-28T06:54:35.431Z,81.50
2022-07-28T06:58:00.847Z,82.10
2022-07-28T07:04:04.625Z,79.70
2022-07-28T07:06:56.843Z,82.00
2022-07-28T07:09:49.605Z,82.00
2022-07-28T07:13:13.963Z,81.20
2022-07-28T07:15:45.182Z,81.60
2022-07-28T07:18:44.947Z,83.40
2022-07-28T07:21:36.905Z,81.10
2022-07-28T07:24:34.708Z,82.00
2022-07-28T07:27:12.278Z,81.50
2022-07-28T07:30:08.568Z,81.70
2022-07-28T07:32:59.477Z,81.10
2022-07-28T07:35:31.136Z,78.70
2022-07-28T07:38:02.680Z,79.00
2022-07-28T07:43:40.675Z,79.00
2022-07-28T07:46:15.084Z,77.30
2022-07-28T07:49:06.464Z,80.90
2022-07-28T07:52:04.226Z,81.10
2022-07-28T07:55:06.207Z,78.30
2022-07-28T07:57:57.415Z,76.80
2022-07-28T08:00:48.969Z,80.30
2022-07-28T08:03:44.115Z,76.60
2022-07-28T08:06:49.829Z,76.60
2022-07-28T08:09:40.942Z,76.30
2022-07-28T08:12:24.792Z,76.30
2022-07-28T08:15:23.019Z,77.70
2022-07-28T08:18:20.818Z,76.70
2022-07-28T08:21:12.061Z,76.70
2022-07-28T08:23:43.290Z,76.70
2022-07-28T08:26:37.299Z,78.80
2022-07-28T08:29:08.641Z,77.10
2022-07-28T08:31:39.948Z,77.30
2022-07-28T08:34:33.622Z,75.40
2022-07-28T08:37:07.268Z,77.10
2022-07-28T08:39:39.160Z,76.70
2022-07-28T08:42:52.190Z,76.00
2022-07-28T08:45:46.525Z,74.20
2022-07-28T08:48:41.180Z,74.90
2022-07-28T08:51:51.078Z,76.40
2022-07-28T08:54:43.224Z,74.60
2022-07-28T08:57:22.251Z,73.40
2022-07-28T08:59:59.213Z,73.80
2022-07-28T09:02:33.663Z,73.00
2022-07-28T09:05:07.614Z,74.50
2022-07-28T09:07:44.585Z,73.00
2022-07-28T09:10:16.991Z,73.80
2022-07-28T09:12:48.143Z,75.00
2022-07-28T09:15:20.571Z,75.00
2022-07-28T09:17:51.803Z,74.40
2022-07-28T09:20:23.352Z,75.30
2022-07-28T09:22:59.744Z,77.60
2022-07-28T09:25:32.092Z,79.50
2022-07-28T09:28:14.920Z,77.00
2022-07-28T09:31:09.472Z,76.50
2022-07-28T09:33:43.604Z,77.60
2022-07-28T09:36:42.169Z,80.10
2022-07-28T09:39:13.424Z,79.40
2022-07-28T09:41:51.751Z,81.10
2022-07-28T09:47:33.032Z,74.70
2022-07-28T09:50:36.795Z,75.50
2022-07-28T09:53:29.304Z,77.90
2022-07-28T09:56:21.315Z,78.90
2022-07-28T09:59:20.480Z,81.20
2022-07-28T10:02:01.539Z,81.70
2022-07-28T10:04:55.121Z,83.50
2022-07-28T10:07:26.584Z,84.30
2022-07-28T10:10:02.893Z,87.40
2022-07-28T10:12:41.142Z,84.00
2022-07-28T10:15:38.380Z,86.80
2022-07-28T10:18:51.762Z,87.20
2022-07-28T10:21:46.150Z,88.60
2022-07-28T10:25:03.333Z,87.50
2022-07-28T10:31:17.121Z,90.10
2022-07-28T10:34:16.130Z,90.80
2022-07-28T10:37:14.530Z,92.20
2022-07-28T10:40:16.396Z,92.00
2022-07-28T10:43:10.928Z,92.60
2022-07-28T10:46:14.192Z,94.10
2022-07-28T10:49:12.439Z,95.00
2022-07-28T10:52:19.722Z,95.60
2022-07-28T10:55:05.942Z,95.80
2022-07-28T12:07:05.045Z,99.90
2022-07-28T12:13:10.948Z,99.90
2022-07-28T12:37:01.393Z,99.90
2022-07-28T12:40:18.944Z,99.90
2022-07-28T12:43:10.181Z,99.90
2022-07-28T12:46:05.682Z,99.90
2022-07-28T12:49:01.940Z,99.90
2022-07-28T12:51:56.234Z,99.90
2022-07-28T12:54:41.808Z,99.90
2022-07-28T12:57:51.400Z,99.90
2022-07-28T13:00:25.894Z,99.90
2022-07-28T13:02:59.778Z,99.90
2022-07-28T13:06:06.555Z,99.90
2022-07-28T13:08:45.895Z,99.90
2022-07-28T13:11:42.419Z,99.90
2022-07-28T13:14:12.642Z,99.90
2022-07-28T13:16:45.272Z,99.90
2022-07-28T13:19:24.288Z,99.90
2022-07-28T13:22:17.329Z,99.90
2022-07-28T13:24:49.746Z,99.90
2022-07-28T13:30:04.318Z,99.90
2022-07-28T13:32:38.044Z,99.90
2022-07-28T13:35:30.580Z,99.90
2022-07-28T13:38:01.933Z,99.90
2022-07-28T13:40:41.128Z,99.90
2022-07-28T13:43:35.976Z,99.90
2022-07-28T13:46:07.862Z,99.90
2022-07-28T13:49:08.697Z,99.90
2022-07-28T13:51:40.113Z,99.90
2022-07-28T13:54:13.376Z,99.90
2022-07-28T13:57:14.665Z,99.90
2022-07-28T13:59:47.099Z,99.90
2022-07-28T14:02:39.135Z,99.90
2022-07-28T14:05:35.347Z,99.90
2022-07-28T14:08:28.117Z,99.90
2022-07-28T14:11:25.127Z,99.90
2022-07-28T14:17:14.656Z,99.90
2022-07-28T14:19:54.424Z,99.90
2022-07-28T14:22:46.864Z,99.90
2022-07-28T14:25:49.289Z,99.90
2022-07-28T14:47:44.877Z,99.90
2022-07-28T14:53:23.669Z,99.90
2022-07-28T14:56:18.873Z,99.90
2022-07-28T15:01:53.481Z,99.90
2022-07-28T15:04:24.999Z,99.90
2022-07-28T15:07:16.313Z,99.90
2022-07-28T15:10:11.081Z,99.90
2022-07-28T15:13:09.362Z,99.90
2022-07-28T15:16:28.153Z,99.90
2022-07-28T15:19:10.748Z,99.90
2022-07-28T15:22:04.589Z,99.90
2022-07-28T15:24:38.690Z,99.90
2022-07-28T15:27:33.757Z,99.90
2022-07-28T15:30:32.639Z,99.90
2022-07-28T15:33:26.899Z,99.90
2022-07-28T15:36:41.630Z,99.90
2022-07-28T15:39:34.987Z,99.90
2022-07-28T15:42:47.543Z,99.90
2022-07-28T15:48:28.746Z,99.90
2022-07-28T15:51:26.158Z,99.90
2022-07-28T15:53:57.874Z,99.90
2022-07-28T15:56:30.426Z,99.90
2022-07-28T15:59:49.654Z,99.90
2022-07-28T16:02:24.714Z,99.90
2022-07-28T16:04:56.506Z,99.90
2022-07-28T16:10:42.687Z,99.90
2022-07-28T16:13:13.909Z,99.90
2022-07-28T16:16:27.794Z,99.90
2022-07-28T16:39:47.774Z,99.90
2022-07-28T16:42:20.458Z,99.90
2022-07-28T16:48:37.101Z,99.90
2022-07-28T16:51:56.904Z,99.90
2022-07-28T16:54:35.311Z,99.90
2022-07-28T16:57:07.230Z,99.90
2022-07-28T16:59:47.066Z,99.90
2022-07-28T17:02:22.234Z,99.90
2022-07-28T17:04:53.563Z,99.90
2022-07-28T17:07:46.253Z,99.90
2022-07-28T17:10:37.753Z,99.90
2022-07-28T17:13:13.253Z,99.90
2022-07-28T17:15:44.846Z,99.90
2022-07-28T17:18:42.245Z,99.90
2022-07-28T17:21:13.528Z,99.90
2022-07-28T17:24:05.753Z,99.90
2022-07-28T17:27:37.638Z,99.90
2022-07-28T17:30:14.948Z,99.90
2022-07-28T18:14:03.919Z,99.90
2022-07-28T18:16:56.613Z,99.90
2022-07-28T18:20:02.990Z,99.90
2022-07-28T18:36:34.195Z,99.90
2022-07-28T19:18:10.639Z,99.90
2022-07-28T19:20:45.870Z,99.90
2022-07-28T19:23:36.909Z,99.90
2022-07-28T19:26:29.424Z,99.90
2022-07-28T19:29:20.803Z,99.90
2022-07-28T19:31:54.495Z,99.90
2022-07-28T19:34:25.981Z,99.90
2022-07-28T19:37:21.190Z,99.90
2022-07-28T19:59:57.032Z,99.90
2022-07-28T20:02:28.321Z,99.90
2022-07-28T20:05:19.398Z,99.90
2022-07-28T20:07:50.757Z,99.90
2022-07-28T20:10:45.065Z,99.90
2022-07-28T20:13:49.492Z,99.90
2022-07-28T20:16:40.760Z,99.90
2022-07-28T20:19:37.657Z,99.90
2022-07-28T20:22:31.832Z,99.90
2022-07-28T20:42:48.618Z,99.90
2022-07-28T20:45:22.437Z,99.90
2022-07-28T20:47:54.080Z,99.90
2022-07-28T20:50:26.586Z,99.90
2022-07-28T20:52:57.840Z,99.90
2022-07-28T20:55:49.063Z,99.90
2022-07-28T21:01:38.892Z,99.90
2022-07-28T21:04:35.955Z,99.90
2022-07-28T21:07:07.152Z,99.90
2022-07-28T21:09:58.523Z,99.90
2022-07-28T21:16:22.270Z,99.90
2022-07-28T21:19:22.225Z,99.90
2022-07-28T21:21:53.601Z,99.90
2022-07-28T21:24:24.905Z,99.90
2022-07-28T21:26:56.506Z,99.90
2022-07-28T21:29:27.686Z,99.90
2022-07-28T21:32:19.034Z,99.90
2022-07-28T21:34:50.297Z,99.90
2022-07-28T21:37:21.454Z,99.90
2022-07-28T21:40:14.553Z,99.90
2022-07-28T21:45:54.463Z,99.90
2022-07-28T21:48:56.413Z,99.90
2022-07-28T21:51:29.914Z,99.90
2022-07-28T21:54:01.852Z,99.90
2022-07-28T21:56:36.781Z,99.90
2022-07-28T22:18:12.182Z,99.90
2022-07-28T22:36:10.235Z,99.90
2022-07-28T22:39:24.522Z,99.90
2022-07-28T22:42:48.528Z,99.90
2022-07-28T22:59:38.478Z,99.90
2022-07-28T23:02:11.663Z,99.90
2022-07-28T23:05:03.734Z,99.90
2022-07-28T23:07:53.031Z,99.90
2022-07-28T23:10:27.845Z,99.90
2022-07-28T23:30:28.132Z,99.90
2022-07-28T23:33:56.094Z,99.90
2022-07-28T23:44:05.229Z,99.90
2022-07-28T23:47:19.654Z,99.90
2022-07-28T23:50:11.319Z,99.90
2022-07-28T23:53:03.483Z,99.90
2022-07-28T23:55:55.802Z,99.90
